createdAt,value
2019-03-17T00:01:00.860Z,8.50
2019-03-17T00:04:08.891Z,8.40
2019-03-17T00:07:15.973Z,8.40
2019-03-17T00:10:22.955Z,8.40
2019-03-17T00:13:29.929Z,8.40
2019-03-17T00:16:37.251Z,8.50
2019-03-17T00:19:44.627Z,8.40
2019-03-17T00:22:53.980Z,8.50
2019-03-17T00:26:00.778Z,8.40
2019-03-17T00:29:07.802Z,8.40
2019-03-17T00:32:15.679Z,8.40
2019-03-17T00:35:23.899Z,8.30
2019-03-17T00:38:32.511Z,8.30
2019-03-17T00:41:41.798Z,8.20
2019-03-17T00:44:55.301Z,8.20
2019-03-17T00:48:07.641Z,8.20
2019-03-17T00:51:16.495Z,8.20
2019-03-17T00:54:25.703Z,8.10
2019-03-17T00:57:32.548Z,8.10
2019-03-17T01:00:39.524Z,8.20
2019-03-17T01:03:46.435Z,8.20
2019-03-17T01:06:53.258Z,8.20
2019-03-17T01:10:00.025Z,8.10
2019-03-17T01:13:06.846Z,8.10
2019-03-17T01:16:13.646Z,8.10
2019-03-17T01:19:21.295Z,8.00
2019-03-17T01:22:28.102Z,8.00
2019-03-17T01:25:35.156Z,8.00
2019-03-17T01:28:42.069Z,7.90
2019-03-17T01:31:48.942Z,8.00
2019-03-17T01:35:08.175Z,8.00
2019-03-17T01:38:04.472Z,8.00
2019-03-17T01:41:11.331Z,8.00
2019-03-17T01:44:18.673Z,7.90
2019-03-17T01:47:27.683Z,8.00
2019-03-17T01:50:34.295Z,8.00
2019-03-17T01:53:41.079Z,8.00
2019-03-17T01:56:48.448Z,8.00
2019-03-17T01:59:59.877Z,7.90
2019-03-17T02:03:07.578Z,7.90
2019-03-17T02:06:14.599Z,8.00
2019-03-17T02:09:25.891Z,8.00
2019-03-17T02:12:34.451Z,7.90
2019-03-17T02:15:41.490Z,8.00
2019-03-17T02:18:48.426Z,7.90
2019-03-17T02:21:56.685Z,7.90
2019-03-17T02:25:03.550Z,7.80
2019-03-17T02:28:10.363Z,7.80
2019-03-17T02:31:18.255Z,7.90
2019-03-17T02:34:25.238Z,7.90
2019-03-17T02:37:32.693Z,7.90
2019-03-17T02:40:41.608Z,7.90
2019-03-17T02:43:48.597Z,8.00
2019-03-17T02:46:55.994Z,8.00
2019-03-17T02:50:03.100Z,8.00
2019-03-17T02:53:09.957Z,8.10
2019-03-17T02:56:16.849Z,8.20
2019-03-17T02:59:23.796Z,8.20
2019-03-17T03:02:30.733Z,8.30
2019-03-17T03:05:53.539Z,8.30
2019-03-17T03:08:46.178Z,8.40
2019-03-17T03:11:53.046Z,8.40
2019-03-17T03:15:00.558Z,8.40
2019-03-17T03:18:07.410Z,8.50
2019-03-17T03:21:14.222Z,8.50
2019-03-17T03:24:21.110Z,8.50
2019-03-17T03:27:27.964Z,8.50
2019-03-17T03:30:37.103Z,8.70
2019-03-17T03:33:44.000Z,8.60
2019-03-17T03:36:50.885Z,8.70
2019-03-17T03:39:58.370Z,8.70
2019-03-17T03:43:06.278Z,8.60
2019-03-17T03:46:13.148Z,8.50
2019-03-17T03:49:19.914Z,8.50
2019-03-17T03:52:26.814Z,8.50
2019-03-17T03:55:33.689Z,8.50
2019-03-17T03:58:40.593Z,8.50
2019-03-17T04:01:47.460Z,8.50
2019-03-17T04:04:54.271Z,8.40
2019-03-17T04:08:01.174Z,8.40
2019-03-17T04:11:08.536Z,8.30
2019-03-17T04:14:15.431Z,8.30
2019-03-17T04:17:22.228Z,8.30
2019-03-17T04:20:29.022Z,8.30
2019-03-17T04:23:36.127Z,8.30
2019-03-17T04:26:42.928Z,8.30
2019-03-17T04:29:49.773Z,8.40
2019-03-17T04:32:56.623Z,8.30
2019-03-17T04:36:03.431Z,8.30
2019-03-17T04:39:10.223Z,8.30
2019-03-17T04:42:17.633Z,8.20
2019-03-17T04:45:24.515Z,8.30
2019-03-17T04:48:31.387Z,8.30
2019-03-17T04:51:38.214Z,8.30
2019-03-17T04:54:45.014Z,8.30
2019-03-17T04:57:52.304Z,8.20
2019-03-17T05:00:59.637Z,8.20
2019-03-17T05:04:06.464Z,8.30
2019-03-17T05:07:13.253Z,8.30
2019-03-17T05:10:22.909Z,8.30
2019-03-17T05:13:32.571Z,8.40
2019-03-17T05:16:39.442Z,8.40
2019-03-17T05:19:46.291Z,8.40
2019-03-17T05:22:53.115Z,8.50
2019-03-17T05:25:59.908Z,8.50
2019-03-17T05:29:10.470Z,8.50
2019-03-17T05:32:17.312Z,8.50
2019-03-17T05:35:24.260Z,8.50
2019-03-17T05:38:31.409Z,8.50
2019-03-17T05:41:38.233Z,8.50
2019-03-17T05:44:45.110Z,8.60
2019-03-17T05:47:51.905Z,8.60
2019-03-17T05:50:58.750Z,8.70
2019-03-17T05:54:05.933Z,8.70
2019-03-17T05:57:12.726Z,8.70
2019-03-17T06:00:19.844Z,8.70
2019-03-17T06:03:26.673Z,8.70
2019-03-17T06:06:33.538Z,8.80
2019-03-17T06:09:40.389Z,8.80
2019-03-17T06:12:47.286Z,8.80
2019-03-17T06:15:54.130Z,8.80
2019-03-17T06:19:00.988Z,8.80
2019-03-17T06:22:07.895Z,8.80
2019-03-17T06:25:14.732Z,8.80
2019-03-17T06:28:21.801Z,8.90
2019-03-17T06:31:28.708Z,8.90
2019-03-17T06:34:35.660Z,8.90
2019-03-17T06:37:42.521Z,9.00
2019-03-17T06:40:49.335Z,9.10
2019-03-17T06:43:56.130Z,9.30
2019-03-17T06:47:05.765Z,9.60
2019-03-17T06:50:11.962Z,10.40
2019-03-17T06:53:18.771Z,11.20
2019-03-17T06:56:25.593Z,11.60
2019-03-17T06:59:32.486Z,11.40
2019-03-17T07:02:39.300Z,11.50
2019-03-17T07:05:46.137Z,11.70
2019-03-17T07:08:52.952Z,12.20
2019-03-17T07:11:59.842Z,12.20
2019-03-17T07:15:06.881Z,11.80
2019-03-17T07:18:13.678Z,11.30
2019-03-17T07:21:20.587Z,10.90
2019-03-17T07:24:29.331Z,10.60
2019-03-17T07:27:36.332Z,10.50
2019-03-17T07:30:43.331Z,10.40
2019-03-17T07:33:50.256Z,10.50
2019-03-17T07:37:03.642Z,10.40
2019-03-17T07:40:12.230Z,10.40
2019-03-17T07:43:19.368Z,10.20
2019-03-17T07:46:26.550Z,10.20
2019-03-17T07:49:33.536Z,10.10
2019-03-17T07:52:40.567Z,10.10
2019-03-17T07:55:47.554Z,10.00
2019-03-17T07:58:54.512Z,9.90
2019-03-17T08:02:01.633Z,10.00
2019-03-17T08:05:08.717Z,10.00
2019-03-17T08:08:15.982Z,10.10
2019-03-17T08:11:23.002Z,10.10
2019-03-17T08:14:29.970Z,10.00
2019-03-17T08:17:37.367Z,9.90
2019-03-17T08:20:44.465Z,10.00
2019-03-17T08:23:51.474Z,10.10
2019-03-17T08:26:58.554Z,10.10
2019-03-17T08:30:06.353Z,10.20
2019-03-17T08:33:13.487Z,10.30
2019-03-17T08:36:20.561Z,10.40
2019-03-17T08:39:27.511Z,10.40
2019-03-17T08:42:34.563Z,10.50
2019-03-17T08:45:41.730Z,10.40
2019-03-17T08:48:49.064Z,10.30
2019-03-17T08:51:55.978Z,10.40
2019-03-17T08:55:02.909Z,10.40
2019-03-17T08:58:09.814Z,10.50
2019-03-17T09:01:16.702Z,10.40
2019-03-17T09:04:23.623Z,10.30
2019-03-17T09:07:30.656Z,10.40
2019-03-17T09:10:37.547Z,10.40
2019-03-17T09:13:44.933Z,10.40
2019-03-17T09:16:51.811Z,10.40
2019-03-17T09:19:58.643Z,10.40
2019-03-17T09:23:05.535Z,10.40
2019-03-17T09:26:12.506Z,10.40
2019-03-17T09:29:19.420Z,10.30
2019-03-17T09:32:26.343Z,10.30
2019-03-17T09:35:33.162Z,10.30
2019-03-17T09:38:47.243Z,10.20
2019-03-17T09:41:48.541Z,10.20
2019-03-17T09:44:55.477Z,10.30
2019-03-17T09:48:02.395Z,10.30
2019-03-17T09:51:09.294Z,10.30
2019-03-17T09:54:16.160Z,10.20
2019-03-17T09:57:23.133Z,10.30
2019-03-17T10:00:30.048Z,10.20
2019-03-17T10:03:37.017Z,10.20
2019-03-17T10:06:43.835Z,10.10
2019-03-17T10:09:50.757Z,9.90
2019-03-17T10:12:57.688Z,10.10
2019-03-17T10:16:05.231Z,10.20
2019-03-17T10:19:12.067Z,10.20
2019-03-17T10:22:18.996Z,10.10
2019-03-17T10:25:25.856Z,10.00
2019-03-17T10:28:35.076Z,9.90
2019-03-17T10:31:41.589Z,9.90
2019-03-17T10:34:48.598Z,9.80
2019-03-17T10:37:55.510Z,9.70
2019-03-17T10:41:02.475Z,9.70
2019-03-17T10:44:09.516Z,9.70
2019-03-17T10:47:16.610Z,9.70
2019-03-17T10:50:23.657Z,9.90
2019-03-17T10:53:30.828Z,10.00
2019-03-17T10:56:39.072Z,10.00
2019-03-17T10:59:46.003Z,10.00
2019-03-17T11:02:53.150Z,10.00
2019-03-17T11:06:00.137Z,10.10
2019-03-17T11:09:07.610Z,10.00
2019-03-17T11:12:15.819Z,10.20
2019-03-17T11:15:22.793Z,10.30
2019-03-17T11:18:29.812Z,10.50
2019-03-17T11:21:38.811Z,10.60
2019-03-17T11:24:45.729Z,10.70
2019-03-17T11:27:52.741Z,10.90
2019-03-17T11:31:00.531Z,11.00
2019-03-17T11:34:07.494Z,10.90
2019-03-17T11:37:14.423Z,11.00
2019-03-17T11:40:21.565Z,11.20
2019-03-17T11:43:28.563Z,11.30
2019-03-17T11:46:35.663Z,11.40
2019-03-17T11:49:45.925Z,11.40
2019-03-17T11:52:51.696Z,11.30
2019-03-17T11:55:58.749Z,11.10
2019-03-17T11:59:05.984Z,11.30
2019-03-17T12:02:12.840Z,11.40
2019-03-17T12:05:47.968Z,11.40
2019-03-17T12:09:04.497Z,10.20
2019-03-17T12:12:11.825Z,7.60
2019-03-17T12:15:19.017Z,7.00
2019-03-17T12:18:26.053Z,6.70
2019-03-17T12:21:32.909Z,6.70
2019-03-17T12:24:39.798Z,6.70
2019-03-17T12:27:46.717Z,7.00
2019-03-17T12:30:53.628Z,7.20
2019-03-17T12:34:00.466Z,7.50
2019-03-17T12:37:07.448Z,7.70
2019-03-17T12:40:14.375Z,7.70
2019-03-17T12:43:21.198Z,7.90
2019-03-17T12:46:28.016Z,7.90
2019-03-17T12:49:34.919Z,7.90
2019-03-17T12:52:41.810Z,7.90
2019-03-17T12:55:48.736Z,8.00
2019-03-17T12:58:55.658Z,8.00
2019-03-17T13:02:02.583Z,8.00
2019-03-17T13:05:09.913Z,7.90
2019-03-17T13:08:16.840Z,7.70
2019-03-17T13:11:23.733Z,7.60
2019-03-17T13:14:30.596Z,7.60
2019-03-17T13:17:38.582Z,7.60
2019-03-17T13:20:45.519Z,7.60
2019-03-17T13:23:52.528Z,7.70
2019-03-17T13:26:59.426Z,7.80
2019-03-17T13:30:07.787Z,7.60
2019-03-17T13:33:14.731Z,7.70
2019-03-17T13:36:21.579Z,7.70
2019-03-17T13:39:28.449Z,7.60
2019-03-17T13:42:35.540Z,7.60
2019-03-17T13:45:42.474Z,7.60
2019-03-17T13:48:49.363Z,7.60
2019-03-17T13:51:56.250Z,7.90
2019-03-17T13:55:03.210Z,8.00
2019-03-17T13:58:10.082Z,8.20
2019-03-17T14:01:16.966Z,8.20
2019-03-17T14:04:23.877Z,8.30
2019-03-17T14:07:30.769Z,8.20
2019-03-17T14:10:41.362Z,8.20
2019-03-17T14:13:46.347Z,8.20
2019-03-17T14:16:53.289Z,8.10
2019-03-17T14:20:00.331Z,8.20
2019-03-17T14:23:07.265Z,8.20
2019-03-17T14:26:14.119Z,8.10
2019-03-17T14:29:20.973Z,8.20
2019-03-17T14:32:27.857Z,8.30
2019-03-17T14:35:34.688Z,8.30
2019-03-17T14:38:41.603Z,8.40
2019-03-17T14:41:48.548Z,8.40
2019-03-17T14:44:55.458Z,8.40
2019-03-17T14:48:02.394Z,8.30
2019-03-17T14:51:09.357Z,8.50
2019-03-17T14:54:16.205Z,8.70
2019-03-17T14:57:23.127Z,8.60
2019-03-17T15:00:29.953Z,8.50
2019-03-17T15:03:36.931Z,8.50
2019-03-17T15:06:43.866Z,8.70
2019-03-17T15:09:50.789Z,8.60
2019-03-17T15:12:57.725Z,8.50
2019-03-17T15:16:04.672Z,8.60
2019-03-17T15:19:11.610Z,8.60
2019-03-17T15:22:18.681Z,8.80
2019-03-17T15:25:25.722Z,8.70
2019-03-17T15:28:33.168Z,8.80
2019-03-17T15:31:40.108Z,8.80
2019-03-17T15:34:47.305Z,8.90
2019-03-17T15:37:54.315Z,8.90
2019-03-17T15:41:01.371Z,8.80
2019-03-17T15:44:08.296Z,8.60
2019-03-17T15:47:15.382Z,8.60
2019-03-17T15:50:22.331Z,8.60
2019-03-17T15:53:29.244Z,8.50
2019-03-17T15:56:36.193Z,8.50
2019-03-17T15:59:43.111Z,8.50
2019-03-17T16:02:50.092Z,8.50
2019-03-17T16:05:56.950Z,8.50
2019-03-17T16:09:05.490Z,8.40
2019-03-17T16:12:12.395Z,8.40
2019-03-17T16:15:19.416Z,8.30
2019-03-17T16:18:26.450Z,8.30
2019-03-17T16:21:33.408Z,8.30
2019-03-17T16:24:40.253Z,8.20
2019-03-17T16:27:47.246Z,8.10
2019-03-17T16:30:54.114Z,8.10
2019-03-17T16:34:01.006Z,8.10
2019-03-17T16:37:07.886Z,7.60
2019-03-17T16:40:15.769Z,7.30
2019-03-17T16:43:22.647Z,7.20
2019-03-17T16:46:29.488Z,7.10
2019-03-17T16:49:36.594Z,6.80
2019-03-17T16:52:43.430Z,6.50
2019-03-17T16:55:50.349Z,6.40
2019-03-17T16:58:57.231Z,6.50
2019-03-17T17:02:04.301Z,6.50
2019-03-17T17:05:11.859Z,6.40
2019-03-17T17:08:18.762Z,6.20
2019-03-17T17:11:25.773Z,6.10
2019-03-17T17:14:32.620Z,5.90
2019-03-17T17:17:39.807Z,5.70
2019-03-17T17:20:47.047Z,5.80
2019-03-17T17:23:53.935Z,5.70
2019-03-17T17:27:00.780Z,5.60
2019-03-17T17:30:08.839Z,5.40
2019-03-17T17:33:15.649Z,5.20
2019-03-17T17:36:22.715Z,5.30
2019-03-17T17:39:29.741Z,5.30
2019-03-17T17:42:36.723Z,5.30
2019-03-17T17:45:43.591Z,5.30
2019-03-17T17:48:51.748Z,5.30
2019-03-17T17:52:03.651Z,5.30
2019-03-17T17:55:17.273Z,5.10
2019-03-17T17:58:24.067Z,4.90
2019-03-17T18:01:30.879Z,4.90
2019-03-17T18:04:38.390Z,4.90
2019-03-17T18:07:45.743Z,4.90
2019-03-17T18:10:52.624Z,5.00
2019-03-17T18:13:59.485Z,5.00
2019-03-17T18:17:06.380Z,5.10
2019-03-17T18:20:16.004Z,5.00
2019-03-17T18:23:22.934Z,4.90
2019-03-17T18:26:30.331Z,5.00
2019-03-17T18:29:37.329Z,5.00
2019-03-17T18:32:44.284Z,5.00
2019-03-17T18:35:51.137Z,4.90
2019-03-17T18:38:58.034Z,4.90
2019-03-17T18:42:05.021Z,5.00
2019-03-17T18:45:14.102Z,4.90
2019-03-17T18:48:20.991Z,4.90
2019-03-17T18:51:28.040Z,4.80
2019-03-17T18:54:34.989Z,4.80
2019-03-17T18:57:41.902Z,4.90
2019-03-17T19:00:48.880Z,4.70
2019-03-17T19:03:55.803Z,4.60
2019-03-17T19:07:02.752Z,4.60
2019-03-17T19:10:09.829Z,4.60
2019-03-17T19:13:16.795Z,4.60
2019-03-17T19:16:23.691Z,4.60
2019-03-17T19:19:30.662Z,4.70
2019-03-17T19:22:37.713Z,4.80
2019-03-17T19:25:44.556Z,4.70
2019-03-17T19:28:51.508Z,4.70
2019-03-17T19:31:58.431Z,4.80
2019-03-17T19:35:05.804Z,4.90
2019-03-17T19:38:13.019Z,5.00
2019-03-17T19:41:19.828Z,5.10
2019-03-17T19:44:26.694Z,5.10
2019-03-17T19:47:33.756Z,5.10
2019-03-17T19:50:41.288Z,5.00
2019-03-17T19:53:48.220Z,5.10
2019-03-17T19:56:55.211Z,5.30
2019-03-17T20:00:02.777Z,5.30
2019-03-17T20:03:09.716Z,5.50
2019-03-17T20:06:16.901Z,5.60
2019-03-17T20:09:23.801Z,5.50
2019-03-17T20:12:31.760Z,5.30
2019-03-17T20:15:39.790Z,5.20
2019-03-17T20:18:47.562Z,5.20
2019-03-17T20:21:54.494Z,5.10
2019-03-17T20:25:01.405Z,5.10
2019-03-17T20:28:08.214Z,5.10
2019-03-17T20:31:15.092Z,5.00
2019-03-17T20:34:21.931Z,5.00
2019-03-17T20:37:29.028Z,5.20
2019-03-17T20:40:36.249Z,5.10
2019-03-17T20:43:43.123Z,5.00
2019-03-17T20:46:50.045Z,4.90
2019-03-17T20:49:57.038Z,4.80
2019-03-17T20:53:04.017Z,4.80
2019-03-17T20:56:10.890Z,4.80
2019-03-17T20:59:19.185Z,4.90
2019-03-17T21:02:26.198Z,4.80
2019-03-17T21:05:33.027Z,4.80
2019-03-17T21:08:41.709Z,4.80
2019-03-17T21:11:50.085Z,4.80
2019-03-17T21:14:57.022Z,4.80
2019-03-17T21:18:03.850Z,4.80
2019-03-17T21:21:25.367Z,4.80
2019-03-17T21:24:33.734Z,4.70
2019-03-17T21:27:47.932Z,4.70
2019-03-17T21:30:55.823Z,4.80
2019-03-17T21:34:02.702Z,4.90
2019-03-17T21:37:09.543Z,4.90
2019-03-17T21:40:17.760Z,4.90
2019-03-17T21:43:24.646Z,4.90
2019-03-17T21:46:34.343Z,4.90
2019-03-17T21:49:43.415Z,4.90
2019-03-17T21:52:50.444Z,4.90
2019-03-17T21:55:57.362Z,4.90
2019-03-17T21:59:05.619Z,5.00
2019-03-17T22:02:33.185Z,5.00
2019-03-17T22:05:51.964Z,4.80
2019-03-17T22:09:11.974Z,4.70
2019-03-17T22:12:34.170Z,4.60
2019-03-17T22:15:53.243Z,4.50
2019-03-17T22:19:13.211Z,4.50
2019-03-17T22:22:34.348Z,4.50
2019-03-17T22:25:53.133Z,4.40
2019-03-17T22:29:19.654Z,4.40
2019-03-17T22:32:41.523Z,4.30
2019-03-17T22:35:59.598Z,4.30
2019-03-17T22:39:19.603Z,4.20
2019-03-17T22:42:37.981Z,4.20
2019-03-17T22:45:56.259Z,4.20
2019-03-17T22:49:14.349Z,4.10
2019-03-17T22:52:34.578Z,4.30
2019-03-17T22:55:53.522Z,4.20
2019-03-17T22:59:12.342Z,4.30
2019-03-17T23:02:30.048Z,4.30
2019-03-17T23:10:00.583Z,4.40
2019-03-17T23:13:26.535Z,4.50
2019-03-17T23:20:29.974Z,4.20
2019-03-17T23:23:48.976Z,4.00
2019-03-17T23:27:07.838Z,4.10
2019-03-17T23:30:25.986Z,4.10
2019-03-17T23:33:44.893Z,4.00
2019-03-17T23:37:02.980Z,3.90
2019-03-17T23:40:21.196Z,3.90
2019-03-17T23:43:40.360Z,3.80
2019-03-17T23:46:59.170Z,3.90
2019-03-17T23:50:18.143Z,4.00
2019-03-17T23:53:36.969Z,4.00
2019-03-17T23:56:55.109Z,3.80
